Terminal Aerodrome Forecast
Issued by NWS Bismarck, ND

Home | Current Version | Previous Version | Text Only | Print | Product List | Glossary Off
Versions: 1 2 3 4 5 6 7 8 9 10 11 12 13 14 15 16 17

000
FTUS43 KBIS 151700
TAFISN
TAF
KISN 151723Z 1518/1618 31015G23KT P6SM FEW080
     FM152100 34021G30KT P6SM SCT060
     FM160600 34013KT P6SM SCT035 BKN060
     FM161500 34007KT P6SM SCT060=

USA.gov is the U.S. government's official web portal to all federal, state and local government web resources and services.